Time;durP1;ratioP1;P1;durP2;ratioP2;P2;SDS_P1;SDS_P2;PMS_P1;PMS_P2;Temp;Humidity;BMP_temperature;BMP_pressure;BME280_temperature;BME280_humidity;BME280_pressure;Samples;Min_cycle;Max_cycle;Signal;HPM_P1;HPM_P2
2023/03/31 00:01:24;;;;;;;;;;;11.70;99.90;;;;;;5058144;28;19913;-67
2023/03/31 00:03:49;;;;;;;;;;;11.70;99.90;;;;;;5062901;28;19921;-68
2023/03/31 00:06:17;;;;;;;;;;;11.80;99.90;;;;;;5052328;28;19923;-67
2023/03/31 00:08:43;;;;;;;;;;;11.80;99.90;;;;;;5038385;28;20400;-66
2023/03/31 00:11:10;;;;;;;;;;;11.80;99.90;;;;;;5042623;28;19944;-67
2023/03/31 00:13:36;;;;;;;;;;;11.80;99.90;;;;;;5057519;28;19963;-67
2023/03/31 00:16:03;;;;;;;;;;;11.90;99.90;;;;;;5052916;28;19928;-67
2023/03/31 00:18:29;;;;;;;;;;;11.90;99.90;;;;;;5058009;28;19924;-67
2023/03/31 00:21:05;;;;;;;;;;;11.90;99.90;;;;;;5053619;28;19939;-68
2023/03/31 00:23:31;;;;;;;;;;;11.90;99.90;;;;;;5036499;28;19975;-68
2023/03/31 00:25:57;;;;;;;;;;;11.80;99.90;;;;;;5043454;28;19991;-68
2023/03/31 00:28:22;;;;;;;;;;;11.80;99.90;;;;;;5034204;28;19913;-68
2023/03/31 00:30:48;;;;;;;;;;;11.80;99.90;;;;;;5063227;28;19935;-67
2023/03/31 00:33:14;;;;;;;;;;;11.90;99.90;;;;;;5060096;28;19912;-66
2023/03/31 00:35:39;;;;;;;;;;;11.80;99.90;;;;;;5064467;28;20272;-66
2023/03/31 00:38:08;;;;;;;;;;;11.80;99.90;;;;;;5049666;28;19962;-65
2023/03/31 00:40:35;;;;;;;;;;;11.90;99.90;;;;;;5066899;28;19919;-66
2023/03/31 00:43:01;;;;;;;;;;;11.90;99.90;;;;;;5061931;28;19927;-66
2023/03/31 00:45:28;;;;;;;;;;;11.80;99.90;;;;;;5059275;28;19921;-67
2023/03/31 00:47:58;;;;;;;;;;;11.90;99.90;;;;;;5053298;28;19958;-67
2023/03/31 00:50:27;;;;;;;;;;;11.90;99.90;;;;;;5067837;28;19912;-67
2023/03/31 00:52:55;;;;;;;;;;;11.90;99.90;;;;;;5049221;28;20029;-66
2023/03/31 00:55:23;;;;;;;;;;;11.90;99.90;;;;;;5059375;28;19919;-67
2023/03/31 00:57:52;;;;;;;;;;;11.90;99.90;;;;;;5062650;28;19995;-69
2023/03/31 01:00:18;;;;;;;;;;;11.90;99.90;;;;;;5059435;28;19955;-68
2023/03/31 01:02:51;;;;;;;;;;;11.90;99.90;;;;;;5056124;28;19924;-69
2023/03/31 01:05:27;;;;;;;;;;;11.90;99.90;;;;;;5040323;28;20003;-68
2023/03/31 01:07:54;;;;;;;;;;;11.90;99.90;;;;;;5057151;28;19923;-65
2023/03/31 01:10:21;;;;;;;;;;;11.90;99.90;;;;;;5054435;28;20021;-65
2023/03/31 01:12:49;;;;;;;;;;;11.90;99.90;;;;;;5051980;28;19912;-66
2023/03/31 01:15:15;;;;;;;;;;;11.90;99.90;;;;;;5066847;28;20019;-66
2023/03/31 01:17:43;;;;;;;;;;;11.90;99.90;;;;;;5055047;28;19948;-67
2023/03/31 01:20:17;;;;;;;;;;;11.90;99.90;;;;;;5039102;28;19913;-68
2023/03/31 01:22:48;;;;;;;;;;;11.90;99.90;;;;;;5053513;28;20368;-68
2023/03/31 01:25:14;;;;;;;;;;;11.90;99.90;;;;;;5052694;28;19912;-69
2023/03/31 01:27:40;;;;;;;;;;;11.90;99.90;;;;;;5053457;28;19920;-68
2023/03/31 01:30:24;;;;;;;;;;;11.90;99.90;;;;;;5048784;28;19917;-68
2023/03/31 01:33:08;;;;;;;;;;;11.90;99.90;;;;;;5042517;28;19913;-67
2023/03/31 01:35:35;;;;;;;;;;;11.90;99.90;;;;;;5052856;28;20335;-65
2023/03/31 01:38:03;;;;;;;;;;;11.90;99.90;;;;;;5060492;28;19913;-65
2023/03/31 01:40:32;;;;;;;;;;;11.80;99.90;;;;;;5052194;28;19916;-67
2023/03/31 01:43:02;;;;;;;;;;;11.80;99.90;;;;;;5052279;28;19998;-69
2023/03/31 01:45:42;;;;;;;;;;;11.90;99.90;;;;;;5068333;28;20419;-69
2023/03/31 01:48:13;;;;;;;;;;;11.80;99.90;;;;;;5066847;28;20265;-66
2023/03/31 01:50:53;;;;;;;;;;;11.80;99.90;;;;;;5069949;28;20010;-69
2023/03/31 01:53:34;;;;;;;;;;;11.70;99.90;;;;;;5050982;28;19912;-68
2023/03/31 01:56:04;;;;;;;;;;;11.70;99.90;;;;;;5064644;28;19913;-68
2023/03/31 01:58:41;;;;;;;;;;;11.70;99.90;;;;;;5064319;28;19920;-67
2023/03/31 02:01:39;;;;;;;;;;;11.80;99.90;;;;;;5041087;28;19912;-69
2023/03/31 02:04:12;;;;;;;;;;;11.80;99.90;;;;;;5013831;28;19921;-68
2023/03/31 02:06:39;;;;;;;;;;;11.80;99.90;;;;;;5063307;28;19920;-68
2023/03/31 02:09:09;;;;;;;;;;;11.80;99.90;;;;;;5069023;28;19912;-68
2023/03/31 02:11:36;;;;;;;;;;;11.80;99.90;;;;;;5068863;28;19973;-68
2023/03/31 02:14:02;;;;;;;;;;;11.90;99.90;;;;;;5064224;28;19913;-68
2023/03/31 02:16:31;;;;;;;;;;;11.90;99.90;;;;;;5068309;28;20364;-68
2023/03/31 02:19:01;;;;;;;;;;;11.90;99.90;;;;;;5068726;28;19917;-69
2023/03/31 02:21:35;;;;;;;;;;;11.80;99.90;;;;;;5047955;28;19948;-69
2023/03/31 02:24:02;;;;;;;;;;;11.90;99.90;;;;;;5066159;28;19926;-69
2023/03/31 02:26:33;;;;;;;;;;;11.80;99.90;;;;;;5048836;28;19913;-69
2023/03/31 02:28:58;;;;;;;;;;;11.80;99.90;;;;;;5068985;28;19912;-67
2023/03/31 02:31:36;;;;;;;;;;;11.80;99.90;;;;;;5067652;28;20003;-68
2023/03/31 02:34:01;;;;;;;;;;;11.80;99.90;;;;;;5059278;28;19912;-68
2023/03/31 02:36:27;;;;;;;;;;;11.80;99.90;;;;;;5066385;28;20015;-68
2023/03/31 02:38:56;;;;;;;;;;;11.80;99.90;;;;;;5050999;28;20260;-68
2023/03/31 02:41:22;;;;;;;;;;;11.80;99.90;;;;;;5057350;28;19920;-68
2023/03/31 02:43:47;;;;;;;;;;;11.80;99.90;;;;;;5067024;28;19920;-68
2023/03/31 02:46:13;;;;;;;;;;;11.80;99.90;;;;;;5046387;28;19912;-68
2023/03/31 02:48:50;;;;;;;;;;;11.80;99.90;;;;;;5068267;28;19912;-68
2023/03/31 02:51:31;;;;;;;;;;;11.80;99.90;;;;;;5056325;28;19912;-68
2023/03/31 02:54:08;;;;;;;;;;;11.80;99.90;;;;;;5063686;28;19923;-68
2023/03/31 02:56:40;;;;;;;;;;;11.80;99.90;;;;;;5067825;28;19916;-69
2023/03/31 02:59:24;;;;;;;;;;;11.80;99.90;;;;;;5064616;28;19938;-69
2023/03/31 03:02:06;;;;;;;;;;;11.80;99.90;;;;;;5072403;28;19938;-69
2023/03/31 03:04:44;;;;;;;;;;;11.80;99.90;;;;;;5068633;28;20019;-69
2023/03/31 03:07:22;;;;;;;;;;;11.80;99.90;;;;;;5072653;28;19921;-68
2023/03/31 03:09:50;;;;;;;;;;;11.80;99.90;;;;;;5050991;28;19912;-68
2023/03/31 03:12:22;;;;;;;;;;;11.80;99.90;;;;;;5064167;28;19920;-69
2023/03/31 03:15:01;;;;;;;;;;;11.80;99.90;;;;;;5068687;28;20370;-69
2023/03/31 03:17:39;;;;;;;;;;;11.70;99.90;;;;;;5058900;28;19919;-69
2023/03/31 03:20:09;;;;;;;;;;;11.60;99.90;;;;;;5052075;28;20319;-69
2023/03/31 03:22:36;;;;;;;;;;;11.70;99.90;;;;;;5074572;28;19920;-68
2023/03/31 03:25:02;;;;;;;;;;;11.70;99.90;;;;;;5067959;28;19913;-67
2023/03/31 03:27:27;;;;;;;;;;;11.60;99.90;;;;;;5063757;28;19963;-67
2023/03/31 03:29:53;;;;;;;;;;;11.60;99.90;;;;;;5069106;28;19966;-67
2023/03/31 03:32:19;;;;;;;;;;;11.50;99.90;;;;;;5067350;28;20261;-67
2023/03/31 03:34:45;;;;;;;;;;;11.50;99.90;;;;;;5068366;28;19952;-67
2023/03/31 03:37:10;;;;;;;;;;;11.60;99.90;;;;;;5061393;28;19917;-66
2023/03/31 03:39:36;;;;;;;;;;;11.50;99.90;;;;;;5066465;28;19913;-67
2023/03/31 03:42:02;;;;;;;;;;;11.50;99.90;;;;;;5059465;28;19913;-66
2023/03/31 03:44:28;;;;;;;;;;;11.50;99.90;;;;;;5066426;28;19931;-68
2023/03/31 03:46:53;;;;;;;;;;;11.50;99.90;;;;;;5068974;28;19913;-69
2023/03/31 03:49:19;;;;;;;;;;;11.50;99.90;;;;;;5060677;28;20003;-70
2023/03/31 03:51:45;;;;;;;;;;;11.50;99.90;;;;;;5068072;28;19913;-69
2023/03/31 03:54:11;;;;;;;;;;;11.50;99.90;;;;;;5065345;28;20512;-69
2023/03/31 03:56:36;;;;;;;;;;;11.50;99.90;;;;;;5065490;28;20407;-69
2023/03/31 03:59:02;;;;;;;;;;;11.50;99.90;;;;;;5067442;28;19913;-69
2023/03/31 04:01:27;;;;;;;;;;;11.50;99.90;;;;;;5067809;28;20050;-69
2023/03/31 04:03:53;;;;;;;;;;;11.50;99.90;;;;;;5071345;28;20261;-68
2023/03/31 04:06:19;;;;;;;;;;;11.50;99.90;;;;;;5070356;28;19919;-69
2023/03/31 04:08:44;;;;;;;;;;;11.50;99.90;;;;;;5071217;28;19999;-70
2023/03/31 04:11:15;;;;;;;;;;;11.40;99.90;;;;;;5070164;28;19912;-69
2023/03/31 04:13:41;;;;;;;;;;;11.40;99.90;;;;;;5074501;28;19913;-70
2023/03/31 04:16:07;;;;;;;;;;;11.40;99.90;;;;;;5064160;28;19919;-68
2023/03/31 04:18:35;;;;;;;;;;;11.40;99.90;;;;;;5077867;28;20019;-69
2023/03/31 04:21:05;;;;;;;;;;;11.40;99.90;;;;;;5068299;28;19912;-68
2023/03/31 04:23:31;;;;;;;;;;;11.40;99.90;;;;;;5061981;28;20446;-68
2023/03/31 04:25:57;;;;;;;;;;;11.30;99.90;;;;;;5065957;28;19916;-64
2023/03/31 04:28:25;;;;;;;;;;;11.30;99.90;;;;;;5065762;28;20012;-68
2023/03/31 04:30:57;;;;;;;;;;;11.30;99.90;;;;;;5073487;28;19912;-69
2023/03/31 04:33:23;;;;;;;;;;;11.30;99.90;;;;;;5071168;28;20383;-68
2023/03/31 04:35:48;;;;;;;;;;;11.30;99.90;;;;;;5071355;28;20010;-68
2023/03/31 04:38:25;;;;;;;;;;;11.30;99.90;;;;;;5073527;28;19912;-68
2023/03/31 04:40:52;;;;;;;;;;;11.20;99.90;;;;;;5073452;28;19935;-68
2023/03/31 04:43:19;;;;;;;;;;;11.30;99.90;;;;;;5069648;28;20399;-67
2023/03/31 04:45:44;;;;;;;;;;;11.30;99.90;;;;;;5068562;28;20395;-70
2023/03/31 04:48:10;;;;;;;;;;;11.30;99.90;;;;;;5073945;28;19912;-69
2023/03/31 04:50:36;;;;;;;;;;;11.30;99.90;;;;;;5071294;28;19960;-69
2023/03/31 04:53:02;;;;;;;;;;;11.20;99.90;;;;;;5069630;28;19912;-70
2023/03/31 04:55:28;;;;;;;;;;;11.20;99.90;;;;;;5072101;28;20342;-69
2023/03/31 04:57:53;;;;;;;;;;;11.30;99.90;;;;;;5074524;28;19919;-70
2023/03/31 05:00:20;;;;;;;;;;;11.30;99.90;;;;;;5069258;28;19913;-68
2023/03/31 05:02:45;;;;;;;;;;;11.30;99.90;;;;;;5072097;28;20265;-69
2023/03/31 05:05:11;;;;;;;;;;;11.30;99.90;;;;;;5074716;28;19912;-68
2023/03/31 05:07:37;;;;;;;;;;;11.30;99.90;;;;;;5068922;28;20066;-69
2023/03/31 05:10:03;;;;;;;;;;;11.30;99.90;;;;;;5050006;28;19920;-68
2023/03/31 05:12:33;;;;;;;;;;;11.30;99.90;;;;;;5072993;28;19926;-68
2023/03/31 05:14:58;;;;;;;;;;;11.20;99.90;;;;;;5077951;28;19912;-68
2023/03/31 05:17:24;;;;;;;;;;;11.20;99.90;;;;;;5073823;28;19919;-69
2023/03/31 05:19:49;;;;;;;;;;;11.20;99.90;;;;;;5058238;28;20012;-68
2023/03/31 05:22:19;;;;;;;;;;;11.40;99.90;;;;;;5057708;28;20287;-67
2023/03/31 05:24:46;;;;;;;;;;;11.60;99.90;;;;;;5065557;28;19936;-68
2023/03/31 05:27:12;;;;;;;;;;;11.60;99.90;;;;;;5062549;28;19966;-69
2023/03/31 05:29:37;;;;;;;;;;;11.60;99.90;;;;;;5069496;28;20004;-68
2023/03/31 05:32:03;;;;;;;;;;;11.60;99.90;;;;;;5072302;28;19999;-69
2023/03/31 05:34:29;;;;;;;;;;;11.60;99.90;;;;;;5063793;28;19916;-69
2023/03/31 05:36:55;;;;;;;;;;;11.60;99.90;;;;;;5069317;28;20002;-70
2023/03/31 05:39:21;;;;;;;;;;;11.50;99.90;;;;;;5049171;28;19959;-70
2023/03/31 05:41:47;;;;;;;;;;;11.60;99.90;;;;;;5064982;28;19969;-71
2023/03/31 05:44:12;;;;;;;;;;;11.60;99.90;;;;;;5068876;28;19924;-70
2023/03/31 05:46:38;;;;;;;;;;;11.50;99.90;;;;;;5076048;28;19912;-70
2023/03/31 05:49:05;;;;;;;;;;;11.60;99.90;;;;;;5065189;28;19917;-71
2023/03/31 05:51:30;;;;;;;;;;;11.50;99.90;;;;;;5066321;28;19917;-72
2023/03/31 05:53:56;;;;;;;;;;;11.50;99.90;;;;;;5069635;28;19912;-71
2023/03/31 05:56:22;;;;;;;;;;;11.50;99.90;;;;;;5075354;28;19912;-70
2023/03/31 05:58:48;;;;;;;;;;;11.50;99.90;;;;;;5069395;28;19912;-70
2023/03/31 06:01:20;;;;;;;;;;;11.50;99.90;;;;;;5067844;28;19995;-70
2023/03/31 06:03:45;;;;;;;;;;;11.50;99.90;;;;;;5073427;28;20376;-69
2023/03/31 06:06:15;;;;;;;;;;;11.50;99.90;;;;;;5067227;28;19970;-69
2023/03/31 06:08:41;;;;;;;;;;;11.50;99.90;;;;;;5069075;28;20002;-69
2023/03/31 06:11:07;;;;;;;;;;;11.50;99.90;;;;;;5069973;28;20015;-68
2023/03/31 06:13:34;;;;;;;;;;;11.50;99.90;;;;;;5073354;28;20376;-68
2023/03/31 06:16:00;;;;;;;;;;;11.40;99.90;;;;;;5076809;28;19944;-68
2023/03/31 06:18:27;;;;;;;;;;;11.50;99.90;;;;;;5068157;28;19982;-69
2023/03/31 06:20:53;;;;;;;;;;;11.50;99.90;;;;;;5067806;28;19919;-69
2023/03/31 06:23:18;;;;;;;;;;;11.50;99.90;;;;;;5063331;28;19921;-69
2023/03/31 06:25:44;;;;;;;;;;;11.40;99.90;;;;;;5064022;28;19912;-69
2023/03/31 06:28:10;;;;;;;;;;;11.50;99.90;;;;;;5047765;28;19951;-68
2023/03/31 06:30:35;;;;;;;;;;;11.40;99.90;;;;;;5073539;28;19913;-68
2023/03/31 06:33:01;;;;;;;;;;;11.40;99.90;;;;;;5071254;28;20002;-68
2023/03/31 06:35:26;;;;;;;;;;;11.50;99.90;;;;;;5049623;28;20283;-69
2023/03/31 06:37:52;;;;;;;;;;;11.50;99.90;;;;;;5072127;28;19912;-69
2023/03/31 06:40:18;;;;;;;;;;;11.50;99.90;;;;;;5066715;28;19958;-69
2023/03/31 06:42:43;;;;;;;;;;;11.50;99.90;;;;;;5065675;28;19944;-70
2023/03/31 06:45:09;;;;;;;;;;;11.60;99.90;;;;;;5071406;28;20337;-68
2023/03/31 06:47:37;;;;;;;;;;;11.60;99.90;;;;;;5071789;28;19939;-70
2023/03/31 06:50:03;;;;;;;;;;;11.60;99.90;;;;;;5068186;28;19916;-69
2023/03/31 06:52:30;;;;;;;;;;;11.60;99.90;;;;;;5073990;28;19919;-69
2023/03/31 06:54:55;;;;;;;;;;;11.60;99.90;;;;;;5074885;28;19912;-70
2023/03/31 06:57:21;;;;;;;;;;;11.60;99.90;;;;;;5073422;28;19923;-70
2023/03/31 06:59:47;;;;;;;;;;;11.60;99.90;;;;;;5057105;28;19971;-70
2023/03/31 07:02:12;;;;;;;;;;;11.60;99.90;;;;;;5070731;28;20395;-70
2023/03/31 07:04:38;;;;;;;;;;;11.60;99.90;;;;;;5067477;28;19929;-70
2023/03/31 07:07:03;;;;;;;;;;;11.60;99.90;;;;;;5064907;28;19919;-71
2023/03/31 07:09:29;;;;;;;;;;;11.60;99.90;;;;;;5064076;28;19948;-69
2023/03/31 07:11:54;;;;;;;;;;;11.60;99.90;;;;;;5075104;28;19912;-69
2023/03/31 07:14:21;;;;;;;;;;;11.60;99.90;;;;;;5071951;28;19916;-69
2023/03/31 07:16:47;;;;;;;;;;;11.60;99.90;;;;;;5068146;28;20381;-69
2023/03/31 07:19:14;;;;;;;;;;;11.60;99.90;;;;;;5066551;28;19916;-70
2023/03/31 07:21:40;;;;;;;;;;;11.70;99.90;;;;;;5070826;28;19920;-68
2023/03/31 07:24:05;;;;;;;;;;;11.60;99.90;;;;;;5065230;28;19973;-69
2023/03/31 07:26:31;;;;;;;;;;;11.60;99.90;;;;;;5068825;28;19918;-70
2023/03/31 07:28:57;;;;;;;;;;;11.50;99.90;;;;;;5071902;28;19916;-70
2023/03/31 07:31:23;;;;;;;;;;;11.60;99.90;;;;;;5072005;28;19919;-70
2023/03/31 07:33:49;;;;;;;;;;;11.50;99.90;;;;;;5075129;28;19912;-70
2023/03/31 07:36:15;;;;;;;;;;;11.50;99.90;;;;;;5061966;28;20059;-70
2023/03/31 07:38:42;;;;;;;;;;;11.50;99.90;;;;;;5068805;28;19999;-70
2023/03/31 07:41:11;;;;;;;;;;;11.40;99.90;;;;;;5074569;28;19990;-68
2023/03/31 07:43:37;;;;;;;;;;;11.40;99.90;;;;;;5065962;28;19924;-69
2023/03/31 07:46:04;;;;;;;;;;;11.40;99.90;;;;;;5048664;28;19912;-68
2023/03/31 07:48:29;;;;;;;;;;;11.40;99.90;;;;;;5048369;28;19917;-69
2023/03/31 07:50:55;;;;;;;;;;;11.40;99.90;;;;;;5043254;28;19939;-70
2023/03/31 07:53:20;;;;;;;;;;;11.40;99.90;;;;;;5046613;28;19960;-71
2023/03/31 07:55:46;;;;;;;;;;;11.50;99.90;;;;;;5048943;28;19917;-70
2023/03/31 07:58:12;;;;;;;;;;;11.50;99.90;;;;;;5050776;28;19913;-70
2023/03/31 08:00:38;;;;;;;;;;;11.60;99.90;;;;;;5045503;28;19921;-70
2023/03/31 08:03:03;;;;;;;;;;;11.50;99.90;;;;;;5047664;28;19924;-70
2023/03/31 08:05:29;;;;;;;;;;;11.60;99.90;;;;;;5050281;28;19960;-70
2023/03/31 08:07:55;;;;;;;;;;;11.50;99.90;;;;;;5051223;28;19960;-70
2023/03/31 08:10:23;;;;;;;;;;;11.60;99.90;;;;;;5048727;28;19959;-69
2023/03/31 08:12:48;;;;;;;;;;;11.60;99.90;;;;;;5045227;28;19959;-70
2023/03/31 08:15:15;;;;;;;;;;;11.60;99.90;;;;;;5050594;28;19913;-69
2023/03/31 08:17:40;;;;;;;;;;;11.60;99.90;;;;;;5048724;28;19920;-69
2023/03/31 08:20:07;;;;;;;;;;;11.60;99.90;;;;;;5048188;28;19929;-68
2023/03/31 08:22:32;;;;;;;;;;;11.50;99.90;;;;;;5053935;28;19917;-69
2023/03/31 08:24:58;;;;;;;;;;;11.40;99.90;;;;;;5055392;28;19987;-68
2023/03/31 08:27:25;;;;;;;;;;;11.40;99.90;;;;;;5036905;28;19912;-70
2023/03/31 08:29:50;;;;;;;;;;;11.30;99.90;;;;;;5102885;22;19975;-64
2023/03/31 08:32:16;;;;;;;;;;;11.40;99.90;;;;;;5110842;27;19969;-65
2023/03/31 08:34:41;;;;;;;;;;;11.40;99.90;;;;;;5108978;27;19912;-65
2023/03/31 08:37:10;;;;;;;;;;;11.50;99.90;;;;;;5111127;27;19942;-65
2023/03/31 08:39:36;;;;;;;;;;;11.40;99.90;;;;;;5113469;27;20339;-65
2023/03/31 08:42:05;;;;;;;;;;;11.50;99.90;;;;;;5110362;28;19922;-64
2023/03/31 08:44:41;;;;;;;;;;;11.60;99.90;;;;;;5110202;27;19920;-64
2023/03/31 08:47:11;;;;;;;;;;;11.70;99.90;;;;;;5107906;27;19912;-65
2023/03/31 08:49:42;;;;;;;;;;;11.80;99.90;;;;;;5111811;27;19911;-66
2023/03/31 08:52:12;;;;;;;;;;;11.70;99.90;;;;;;5109114;27;19935;-65
2023/03/31 08:54:43;;;;;;;;;;;11.60;99.90;;;;;;5114189;27;19964;-65
2023/03/31 08:57:14;;;;;;;;;;;11.70;99.90;;;;;;5102946;27;19916;-64
2023/03/31 08:59:42;;;;;;;;;;;11.70;99.90;;;;;;5108343;28;19956;-65
2023/03/31 09:02:17;;;;;;;;;;;11.70;99.90;;;;;;5112421;27;19912;-66
2023/03/31 09:04:42;;;;;;;;;;;11.70;99.90;;;;;;5116451;27;19927;-64
2023/03/31 09:07:08;;;;;;;;;;;11.70;99.90;;;;;;5103766;27;19916;-64
2023/03/31 09:09:46;;;;;;;;;;;11.70;99.90;;;;;;5108903;27;20367;-65
2023/03/31 09:12:37;;;;;;;;;;;11.70;99.90;;;;;;5107290;27;19916;-66
2023/03/31 09:15:07;;;;;;;;;;;11.70;99.90;;;;;;5104444;28;19934;-64
2023/03/31 09:17:37;;;;;;;;;;;11.70;99.90;;;;;;5110910;27;19935;-64
2023/03/31 09:20:07;;;;;;;;;;;11.70;99.90;;;;;;5110558;27;20390;-64
2023/03/31 09:22:37;;;;;;;;;;;11.70;99.90;;;;;;5109316;28;20377;-64
2023/03/31 09:25:09;;;;;;;;;;;11.70;99.90;;;;;;5107096;27;19923;-63
2023/03/31 09:27:36;;;;;;;;;;;11.70;99.90;;;;;;5110063;27;19911;-64
2023/03/31 09:30:04;;;;;;;;;;;11.70;99.90;;;;;;5099929;28;19942;-64
2023/03/31 09:32:30;;;;;;;;;;;11.70;99.90;;;;;;5106707;28;19935;-65
2023/03/31 09:35:01;;;;;;;;;;;11.80;99.90;;;;;;5102394;27;19919;-64
2023/03/31 09:37:30;;;;;;;;;;;11.80;99.90;;;;;;5081075;28;19919;-66
2023/03/31 09:39:59;;;;;;;;;;;11.80;99.90;;;;;;5105473;28;19918;-64
2023/03/31 09:42:25;;;;;;;;;;;11.80;99.90;;;;;;5101824;27;19915;-64
2023/03/31 09:44:51;;;;;;;;;;;11.90;99.90;;;;;;5110033;27;19923;-65
2023/03/31 09:47:38;;;;;;;;;;;11.90;99.90;;;;;;5110355;27;19927;-64
2023/03/31 09:50:06;;;;;;;;;;;11.90;99.90;;;;;;5111342;27;19927;-64
2023/03/31 09:52:33;;;;;;;;;;;12.00;99.90;;;;;;5111952;27;19992;-64
2023/03/31 09:55:00;;;;;;;;;;;12.00;99.90;;;;;;5113663;27;19918;-64
2023/03/31 09:57:27;;;;;;;;;;;11.90;99.90;;;;;;5102603;28;19951;-64
2023/03/31 10:00:00;;;;;;;;;;;12.00;99.90;;;;;;5111645;27;19911;-64
2023/03/31 10:02:31;;;;;;;;;;;12.00;99.90;;;;;;5105953;28;19916;-63
2023/03/31 10:04:57;;;;;;;;;;;12.00;99.90;;;;;;5104880;27;19923;-64
2023/03/31 10:07:23;;;;;;;;;;;12.00;99.90;;;;;;5113471;27;19915;-64
2023/03/31 10:09:50;;;;;;;;;;;12.00;99.90;;;;;;5106956;27;19912;-64
2023/03/31 10:12:19;;;;;;;;;;;12.10;99.90;;;;;;5088144;27;19922;-64
2023/03/31 10:14:45;;;;;;;;;;;12.20;99.90;;;;;;5109552;27;19912;-64
2023/03/31 10:17:18;;;;;;;;;;;12.30;99.90;;;;;;5105578;27;20367;-64
2023/03/31 10:19:49;;;;;;;;;;;12.40;99.90;;;;;;5106300;28;19955;-63
2023/03/31 10:22:16;;;;;;;;;;;12.40;99.90;;;;;;5105185;27;19935;-62
2023/03/31 10:24:42;;;;;;;;;;;12.30;99.90;;;;;;5089978;28;20365;-63
2023/03/31 10:27:31;;;;;;;;;;;12.30;99.90;;;;;;5107037;27;19912;-63
2023/03/31 10:29:58;;;;;;;;;;;12.40;99.90;;;;;;5105963;27;19966;-63
2023/03/31 10:32:28;;;;;;;;;;;12.20;99.90;;;;;;5110088;27;19911;-63
2023/03/31 10:34:58;;;;;;;;;;;12.10;99.90;;;;;;5107152;27;19962;-63
2023/03/31 10:37:25;;;;;;;;;;;12.20;99.90;;;;;;5113305;27;19911;-62
2023/03/31 10:40:09;;;;;;;;;;;12.30;99.90;;;;;;5114901;27;19944;-62
2023/03/31 10:42:35;;;;;;;;;;;12.20;99.90;;;;;;5099221;28;19920;-64
2023/03/31 10:45:10;;;;;;;;;;;12.30;99.90;;;;;;5108728;27;19911;-61
2023/03/31 10:47:38;;;;;;;;;;;12.30;99.90;;;;;;5105673;28;19911;-63
2023/03/31 10:50:11;;;;;;;;;;;12.40;99.90;;;;;;5110265;28;20339;-64
2023/03/31 10:52:43;;;;;;;;;;;12.30;99.90;;;;;;5100455;28;19916;-63
2023/03/31 10:55:11;;;;;;;;;;;12.50;99.90;;;;;;5106771;28;19911;-63
2023/03/31 10:57:43;;;;;;;;;;;12.60;99.90;;;;;;5106431;28;19919;-63
2023/03/31 11:00:20;;;;;;;;;;;12.60;99.90;;;;;;5109983;28;20105;-63
2023/03/31 11:03:09;;;;;;;;;;;12.30;99.90;;;;;;5092541;28;19923;-63
2023/03/31 11:05:38;;;;;;;;;;;12.10;99.90;;;;;;5090584;28;19919;-61
2023/03/31 11:08:13;;;;;;;;;;;12.00;99.90;;;;;;5107028;28;19912;-62
2023/03/31 11:10:47;;;;;;;;;;;12.10;99.90;;;;;;5102205;28;19946;-63
2023/03/31 11:13:20;;;;;;;;;;;12.30;99.90;;;;;;5115312;27;19916;-63
2023/03/31 11:15:46;;;;;;;;;;;12.50;99.90;;;;;;5114089;27;19916;-63
2023/03/31 11:18:14;;;;;;;;;;;12.60;99.90;;;;;;5113465;27;20367;-62
2023/03/31 11:20:57;;;;;;;;;;;12.80;99.90;;;;;;5118595;27;19912;-63
2023/03/31 11:23:45;;;;;;;;;;;13.00;99.90;;;;;;5117495;27;19928;-64
2023/03/31 11:26:14;;;;;;;;;;;12.90;99.90;;;;;;5106319;28;20367;-63
2023/03/31 11:28:45;;;;;;;;;;;13.30;99.90;;;;;;5111119;27;19911;-63
2023/03/31 11:31:17;;;;;;;;;;;13.60;99.90;;;;;;5110577;27;19915;-62
2023/03/31 11:34:08;;;;;;;;;;;13.40;99.90;;;;;;5110074;28;19912;-63
2023/03/31 11:36:35;;;;;;;;;;;13.10;99.90;;;;;;5111114;27;19923;-63
2023/03/31 11:39:10;;;;;;;;;;;12.90;99.90;;;;;;5108063;27;19919;-63
2023/03/31 11:41:42;;;;;;;;;;;12.80;99.90;;;;;;5107016;28;19976;-63
2023/03/31 11:44:12;;;;;;;;;;;12.80;99.90;;;;;;5111010;27;19924;-63
2023/03/31 11:46:41;;;;;;;;;;;12.60;99.90;;;;;;5115540;27;20005;-63
2023/03/31 11:49:42;;;;;;;;;;;12.60;99.90;;;;;;5116432;27;19975;-62
2023/03/31 11:52:08;;;;;;;;;;;12.60;99.90;;;;;;5023020;28;19956;-63
2023/03/31 11:54:48;;;;;;;;;;;12.60;99.90;;;;;;5035863;28;20358;-63
2023/03/31 11:57:17;;;;;;;;;;;12.50;99.90;;;;;;5025998;28;19929;-62
2023/03/31 11:59:43;;;;;;;;;;;13.00;99.90;;;;;;5030772;28;20031;-64
2023/03/31 12:02:09;;;;;;;;;;;13.10;99.90;;;;;;5024378;28;20451;-64
2023/03/31 12:04:39;;;;;;;;;;;13.30;99.90;;;;;;5029880;28;19925;-62
2023/03/31 12:07:16;;;;;;;;;;;13.20;99.90;;;;;;5025942;28;19960;-64
2023/03/31 12:09:41;;;;;;;;;;;13.80;99.90;;;;;;5025210;28;19913;-63
2023/03/31 12:12:19;;;;;;;;;;;13.40;99.90;;;;;;5032809;28;19966;-63
2023/03/31 12:14:50;;;;;;;;;;;13.50;99.90;;;;;;5021563;28;19920;-64
2023/03/31 12:17:17;;;;;;;;;;;13.30;99.90;;;;;;5010091;28;19924;-63
2023/03/31 12:19:45;;;;;;;;;;;12.80;99.90;;;;;;5023518;28;20293;-63
2023/03/31 12:22:16;;;;;;;;;;;12.60;99.90;;;;;;5029146;28;20012;-61
2023/03/31 12:27:49;;;;;;;;;;;12.10;99.90;;;;;;5099855;27;19922;-63
2023/03/31 12:30:17;;;;;;;;;;;11.90;99.90;;;;;;5112253;27;20432;-63
2023/03/31 12:32:45;;;;;;;;;;;11.90;99.90;;;;;;5114218;27;20030;-64
2023/03/31 12:35:26;;;;;;;;;;;11.80;99.90;;;;;;5111874;27;20310;-63
2023/03/31 12:38:10;;;;;;;;;;;11.80;99.90;;;;;;5114244;27;20014;-63
2023/03/31 12:40:38;;;;;;;;;;;11.80;99.90;;;;;;5107036;27;20283;-64
2023/03/31 12:43:32;;;;;;;;;;;11.80;99.90;;;;;;5114658;27;20451;-64
2023/03/31 12:45:57;;;;;;;;;;;12.20;99.90;;;;;;5109958;27;19931;-63
2023/03/31 12:48:32;;;;;;;;;;;12.50;99.90;;;;;;5114617;27;19919;-63
2023/03/31 12:51:19;;;;;;;;;;;12.60;99.90;;;;;;5114893;27;20351;-64
2023/03/31 12:53:45;;;;;;;;;;;12.70;99.90;;;;;;5108320;27;19965;-63
2023/03/31 12:56:10;;;;;;;;;;;12.60;99.90;;;;;;5109722;27;20006;-62
2023/03/31 12:58:37;;;;;;;;;;;12.50;99.90;;;;;;5113995;27;19931;-64
2023/03/31 13:01:06;;;;;;;;;;;12.20;99.90;;;;;;5107651;27;19918;-63
2023/03/31 13:03:34;;;;;;;;;;;12.20;99.90;;;;;;5113773;27;20294;-63
2023/03/31 13:06:01;;;;;;;;;;;12.50;99.90;;;;;;5117975;27;19969;-69
2023/03/31 13:08:45;;;;;;;;;;;12.60;99.90;;;;;;5114903;27;20377;-63
2023/03/31 13:11:10;;;;;;;;;;;13.00;99.90;;;;;;5121499;27;20494;-63
2023/03/31 13:13:39;;;;;;;;;;;13.40;99.90;;;;;;5117680;27;20001;-63
2023/03/31 13:19:12;;;;;;;;;;;13.20;99.90;;;;;;5097715;28;19926;-63
2023/03/31 13:21:54;;;;;;;;;;;12.50;99.90;;;;;;5105108;27;19912;-64
2023/03/31 13:24:23;;;;;;;;;;;12.10;99.90;;;;;;5118601;27;20389;-63
2023/03/31 13:26:49;;;;;;;;;;;12.00;99.90;;;;;;5111281;27;19912;-62
2023/03/31 13:29:16;;;;;;;;;;;11.90;99.90;;;;;;5110852;27;19915;-63
2023/03/31 13:31:59;;;;;;;;;;;12.00;99.90;;;;;;5114730;27;19920;-64
2023/03/31 13:34:30;;;;;;;;;;;12.20;99.90;;;;;;5106908;27;19912;-64
2023/03/31 13:37:02;;;;;;;;;;;12.10;99.90;;;;;;5108884;27;20321;-64
2023/03/31 13:39:31;;;;;;;;;;;12.10;99.90;;;;;;5118195;27;20012;-63
2023/03/31 13:42:02;;;;;;;;;;;12.00;99.90;;;;;;5118054;27;19911;-64
2023/03/31 13:44:28;;;;;;;;;;;11.90;99.90;;;;;;5109173;27;20384;-63
2023/03/31 13:46:56;;;;;;;;;;;11.80;99.90;;;;;;5109962;28;19911;-65
2023/03/31 13:52:50;;;;;;;;;;;12.20;99.90;;;;;;5084369;28;19918;-63
2023/03/31 13:55:22;;;;;;;;;;;12.00;99.90;;;;;;5100356;27;20352;-64
2023/03/31 13:58:06;;;;;;;;;;;12.10;99.90;;;;;;5108810;27;19920;-62
2023/03/31 14:00:47;;;;;;;;;;;12.30;99.90;;;;;;5107314;28;19986;-63
2023/03/31 14:03:15;;;;;;;;;;;12.30;99.90;;;;;;5107914;27;19926;-64
2023/03/31 14:05:42;;;;;;;;;;;12.20;99.90;;;;;;5104782;27;20434;-63
2023/03/31 14:08:15;;;;;;;;;;;12.00;99.90;;;;;;5109392;27;20329;-64
2023/03/31 14:10:41;;;;;;;;;;;12.00;99.90;;;;;;5092727;28;20065;-64
2023/03/31 14:13:16;;;;;;;;;;;12.00;99.90;;;;;;5106035;28;20001;-65
2023/03/31 14:15:55;;;;;;;;;;;12.00;99.90;;;;;;5114945;27;20308;-65
2023/03/31 14:18:33;;;;;;;;;;;12.20;99.90;;;;;;5109965;27;19936;-64
2023/03/31 14:21:02;;;;;;;;;;;12.20;99.90;;;;;;5109443;27;19941;-63
2023/03/31 14:23:30;;;;;;;;;;;12.10;99.90;;;;;;5108104;27;19959;-64
2023/03/31 14:25:56;;;;;;;;;;;12.00;99.90;;;;;;5108250;27;19998;-62
2023/03/31 14:28:28;;;;;;;;;;;12.00;99.90;;;;;;5111620;27;20287;-64
2023/03/31 14:31:18;;;;;;;;;;;12.10;99.90;;;;;;5111537;27;19931;-63
2023/03/31 14:34:03;;;;;;;;;;;12.00;99.90;;;;;;5106628;27;20423;-63
2023/03/31 14:36:38;;;;;;;;;;;12.20;99.90;;;;;;5111677;27;20060;-64
2023/03/31 14:39:06;;;;;;;;;;;12.20;99.90;;;;;;5117851;27;19911;-64